sensor_id;sensor_type;location;lat;lon;timestamp;P1;durP1;ratioP1;P2;durP2;ratioP2
69463;SDS011;56665;41.106;16.688;2023-08-08T00:01:06;2.92;;;1.20;;
69463;SDS011;56665;41.106;16.688;2023-08-08T00:04:10;3.78;;;1.30;;
69463;SDS011;56665;41.106;16.688;2023-08-08T00:07:14;6.63;;;1.85;;
69463;SDS011;56665;41.106;16.688;2023-08-08T00:10:17;3.78;;;1.60;;
69463;SDS011;56665;41.106;16.688;2023-08-08T00:13:21;4.33;;;1.40;;
69463;SDS011;56665;41.106;16.688;2023-08-08T00:16:25;4.85;;;1.48;;
69463;SDS011;56665;41.106;16.688;2023-08-08T00:19:29;4.28;;;1.35;;
69463;SDS011;56665;41.106;16.688;2023-08-08T00:22:33;4.30;;;1.73;;
69463;SDS011;56665;41.106;16.688;2023-08-08T00:25:36;4.03;;;1.40;;
69463;SDS011;56665;41.106;16.688;2023-08-08T00:28:40;4.33;;;1.40;;
69463;SDS011;56665;41.106;16.688;2023-08-08T00:31:45;3.67;;;1.40;;
69463;SDS011;56665;41.106;16.688;2023-08-08T00:34:49;5.15;;;1.55;;
69463;SDS011;56665;41.106;16.688;2023-08-08T00:37:52;3.63;;;1.45;;
69463;SDS011;56665;41.106;16.688;2023-08-08T00:40:56;5.18;;;1.33;;
69463;SDS011;56665;41.106;16.688;2023-08-08T00:44:00;4.00;;;1.40;;
69463;SDS011;56665;41.106;16.688;2023-08-08T00:47:03;3.15;;;1.75;;
69463;SDS011;56665;41.106;16.688;2023-08-08T00:50:07;2.95;;;1.38;;
69463;SDS011;56665;41.106;16.688;2023-08-08T00:53:12;4.85;;;1.50;;
69463;SDS011;56665;41.106;16.688;2023-08-08T00:56:16;7.00;;;1.70;;
69463;SDS011;56665;41.106;16.688;2023-08-08T00:59:20;4.57;;;1.47;;
69463;SDS011;56665;41.106;16.688;2023-08-08T01:02:25;2.85;;;1.13;;
69463;SDS011;56665;41.106;16.688;2023-08-08T01:05:30;3.83;;;1.63;;
69463;SDS011;56665;41.106;16.688;2023-08-08T01:08:46;3.05;;;1.50;;
69463;SDS011;56665;41.106;16.688;2023-08-08T01:11:55;2.95;;;1.35;;
69463;SDS011;56665;41.106;16.688;2023-08-08T01:15:00;4.10;;;1.23;;
69463;SDS011;56665;41.106;16.688;2023-08-08T01:18:04;3.88;;;1.35;;
69463;SDS011;56665;41.106;16.688;2023-08-08T01:21:09;3.60;;;1.38;;
69463;SDS011;56665;41.106;16.688;2023-08-08T01:24:18;4.85;;;1.33;;
69463;SDS011;56665;41.106;16.688;2023-08-08T01:27:26;3.78;;;1.30;;
69463;SDS011;56665;41.106;16.688;2023-08-08T01:30:29;3.20;;;1.43;;
69463;SDS011;56665;41.106;16.688;2023-08-08T01:33:33;3.50;;;1.30;;
69463;SDS011;56665;41.106;16.688;2023-08-08T01:40:05;4.88;;;1.33;;
69463;SDS011;56665;41.106;16.688;2023-08-08T01:43:09;3.83;;;1.30;;
69463;SDS011;56665;41.106;16.688;2023-08-08T01:46:14;4.63;;;1.30;;
69463;SDS011;56665;41.106;16.688;2023-08-08T01:49:18;4.05;;;1.50;;
69463;SDS011;56665;41.106;16.688;2023-08-08T01:52:21;3.28;;;1.20;;
69463;SDS011;56665;41.106;16.688;2023-08-08T01:55:26;3.17;;;1.25;;
69463;SDS011;56665;41.106;16.688;2023-08-08T01:58:29;4.32;;;1.30;;
69463;SDS011;56665;41.106;16.688;2023-08-08T02:01:33;4.23;;;1.30;;
69463;SDS011;56665;41.106;16.688;2023-08-08T02:04:36;6.18;;;1.20;;
69463;SDS011;56665;41.106;16.688;2023-08-08T02:07:40;3.80;;;1.35;;
69463;SDS011;56665;41.106;16.688;2023-08-08T02:10:44;2.97;;;1.15;;
69463;SDS011;56665;41.106;16.688;2023-08-08T02:13:48;4.57;;;1.40;;
69463;SDS011;56665;41.106;16.688;2023-08-08T02:16:52;3.60;;;1.20;;
69463;SDS011;56665;41.106;16.688;2023-08-08T02:19:55;3.42;;;1.40;;
69463;SDS011;56665;41.106;16.688;2023-08-08T02:22:59;4.78;;;1.45;;
69463;SDS011;56665;41.106;16.688;2023-08-08T02:26:04;3.67;;;1.60;;
69463;SDS011;56665;41.106;16.688;2023-08-08T02:29:08;3.88;;;1.63;;
69463;SDS011;56665;41.106;16.688;2023-08-08T02:32:12;3.57;;;1.30;;
69463;SDS011;56665;41.106;16.688;2023-08-08T02:35:16;2.25;;;1.02;;
69463;SDS011;56665;41.106;16.688;2023-08-08T02:38:20;5.10;;;1.23;;
69463;SDS011;56665;41.106;16.688;2023-08-08T02:41:24;4.15;;;1.77;;
69463;SDS011;56665;41.106;16.688;2023-08-08T02:44:28;3.35;;;1.38;;
69463;SDS011;56665;41.106;16.688;2023-08-08T02:47:31;4.27;;;1.50;;
69463;SDS011;56665;41.106;16.688;2023-08-08T02:50:35;4.43;;;1.30;;
69463;SDS011;56665;41.106;16.688;2023-08-08T02:53:39;4.75;;;1.40;;
69463;SDS011;56665;41.106;16.688;2023-08-08T02:56:44;3.13;;;1.20;;
69463;SDS011;56665;41.106;16.688;2023-08-08T02:59:49;2.67;;;1.38;;
69463;SDS011;56665;41.106;16.688;2023-08-08T03:02:52;3.07;;;1.60;;
69463;SDS011;56665;41.106;16.688;2023-08-08T03:05:57;4.90;;;1.25;;
69463;SDS011;56665;41.106;16.688;2023-08-08T03:09:01;2.92;;;1.50;;
69463;SDS011;56665;41.106;16.688;2023-08-08T03:12:05;4.47;;;1.92;;
69463;SDS011;56665;41.106;16.688;2023-08-08T03:15:10;3.10;;;1.45;;
69463;SDS011;56665;41.106;16.688;2023-08-08T03:18:16;3.73;;;1.70;;
69463;SDS011;56665;41.106;16.688;2023-08-08T03:21:20;3.42;;;1.60;;
69463;SDS011;56665;41.106;16.688;2023-08-08T03:24:23;5.47;;;1.60;;
69463;SDS011;56665;41.106;16.688;2023-08-08T03:27:27;4.35;;;1.48;;
69463;SDS011;56665;41.106;16.688;2023-08-08T03:30:31;3.03;;;1.60;;
69463;SDS011;56665;41.106;16.688;2023-08-08T03:33:35;3.47;;;1.50;;
69463;SDS011;56665;41.106;16.688;2023-08-08T03:36:41;2.67;;;1.30;;
69463;SDS011;56665;41.106;16.688;2023-08-08T03:39:46;4.88;;;1.55;;
69463;SDS011;56665;41.106;16.688;2023-08-08T03:42:50;3.85;;;1.83;;
69463;SDS011;56665;41.106;16.688;2023-08-08T03:45:53;5.32;;;1.98;;
69463;SDS011;56665;41.106;16.688;2023-08-08T03:48:57;5.43;;;1.77;;
69463;SDS011;56665;41.106;16.688;2023-08-08T03:52:01;4.15;;;1.40;;
69463;SDS011;56665;41.106;16.688;2023-08-08T03:55:05;4.65;;;1.70;;
69463;SDS011;56665;41.106;16.688;2023-08-08T03:58:08;4.10;;;1.50;;
69463;SDS011;56665;41.106;16.688;2023-08-08T04:01:12;3.40;;;1.50;;
69463;SDS011;56665;41.106;16.688;2023-08-08T04:04:17;4.73;;;1.70;;
69463;SDS011;56665;41.106;16.688;2023-08-08T04:07:20;4.70;;;1.60;;
69463;SDS011;56665;41.106;16.688;2023-08-08T04:10:26;6.53;;;2.22;;
69463;SDS011;56665;41.106;16.688;2023-08-08T04:13:30;3.60;;;1.60;;
69463;SDS011;56665;41.106;16.688;2023-08-08T04:16:34;3.13;;;1.40;;
69463;SDS011;56665;41.106;16.688;2023-08-08T04:19:37;4.53;;;1.83;;
69463;SDS011;56665;41.106;16.688;2023-08-08T04:22:41;4.07;;;1.50;;
69463;SDS011;56665;41.106;16.688;2023-08-08T04:25:45;4.28;;;1.95;;
69463;SDS011;56665;41.106;16.688;2023-08-08T04:28:48;4.95;;;1.70;;
69463;SDS011;56665;41.106;16.688;2023-08-08T04:31:52;7.40;;;2.10;;
69463;SDS011;56665;41.106;16.688;2023-08-08T04:34:56;4.13;;;1.77;;
69463;SDS011;56665;41.106;16.688;2023-08-08T04:38:00;5.20;;;2.40;;
69463;SDS011;56665;41.106;16.688;2023-08-08T04:41:20;5.30;;;2.15;;
69463;SDS011;56665;41.106;16.688;2023-08-08T04:44:23;8.52;;;2.20;;
69463;SDS011;56665;41.106;16.688;2023-08-08T04:47:27;5.65;;;2.75;;
69463;SDS011;56665;41.106;16.688;2023-08-08T04:50:31;8.73;;;3.40;;
69463;SDS011;56665;41.106;16.688;2023-08-08T04:53:35;13.68;;;4.32;;
69463;SDS011;56665;41.106;16.688;2023-08-08T04:56:39;11.02;;;5.30;;
69463;SDS011;56665;41.106;16.688;2023-08-08T04:59:42;11.40;;;4.70;;
69463;SDS011;56665;41.106;16.688;2023-08-08T05:02:46;7.70;;;4.28;;
69463;SDS011;56665;41.106;16.688;2023-08-08T05:05:50;6.17;;;3.40;;
69463;SDS011;56665;41.106;16.688;2023-08-08T05:08:54;7.70;;;3.05;;
69463;SDS011;56665;41.106;16.688;2023-08-08T05:11:58;6.50;;;2.60;;
69463;SDS011;56665;41.106;16.688;2023-08-08T05:15:02;6.57;;;2.25;;
69463;SDS011;56665;41.106;16.688;2023-08-08T05:18:07;4.80;;;1.83;;
69463;SDS011;56665;41.106;16.688;2023-08-08T05:21:11;4.00;;;1.43;;
69463;SDS011;56665;41.106;16.688;2023-08-08T05:24:14;3.75;;;1.50;;
69463;SDS011;56665;41.106;16.688;2023-08-08T05:27:18;4.28;;;1.60;;
69463;SDS011;56665;41.106;16.688;2023-08-08T05:30:23;4.65;;;1.38;;
69463;SDS011;56665;41.106;16.688;2023-08-08T05:33:26;3.53;;;1.50;;
69463;SDS011;56665;41.106;16.688;2023-08-08T05:36:30;4.43;;;1.33;;
69463;SDS011;56665;41.106;16.688;2023-08-08T05:39:34;4.57;;;1.60;;
69463;SDS011;56665;41.106;16.688;2023-08-08T05:42:38;6.60;;;1.73;;
69463;SDS011;56665;41.106;16.688;2023-08-08T05:45:42;3.97;;;1.70;;
69463;SDS011;56665;41.106;16.688;2023-08-08T05:48:45;5.97;;;1.85;;
69463;SDS011;56665;41.106;16.688;2023-08-08T05:51:50;7.33;;;2.00;;
69463;SDS011;56665;41.106;16.688;2023-08-08T05:54:54;5.75;;;1.70;;
69463;SDS011;56665;41.106;16.688;2023-08-08T05:57:57;3.55;;;1.75;;
69463;SDS011;56665;41.106;16.688;2023-08-08T06:01:01;6.18;;;1.90;;
69463;SDS011;56665;41.106;16.688;2023-08-08T06:04:05;6.25;;;1.95;;
69463;SDS011;56665;41.106;16.688;2023-08-08T06:07:08;6.30;;;2.03;;
69463;SDS011;56665;41.106;16.688;2023-08-08T06:10:13;5.32;;;1.92;;
69463;SDS011;56665;41.106;16.688;2023-08-08T06:13:16;4.60;;;1.80;;
69463;SDS011;56665;41.106;16.688;2023-08-08T06:16:20;4.35;;;1.50;;
69463;SDS011;56665;41.106;16.688;2023-08-08T06:19:24;4.65;;;1.60;;
69463;SDS011;56665;41.106;16.688;2023-08-08T06:22:28;3.57;;;1.77;;
69463;SDS011;56665;41.106;16.688;2023-08-08T06:25:32;3.85;;;1.80;;
69463;SDS011;56665;41.106;16.688;2023-08-08T06:28:35;4.60;;;1.58;;
69463;SDS011;56665;41.106;16.688;2023-08-08T06:31:39;3.45;;;1.50;;
69463;SDS011;56665;41.106;16.688;2023-08-08T06:34:44;3.80;;;1.25;;
69463;SDS011;56665;41.106;16.688;2023-08-08T06:37:47;3.13;;;1.33;;
69463;SDS011;56665;41.106;16.688;2023-08-08T06:40:51;3.55;;;1.25;;
69463;SDS011;56665;41.106;16.688;2023-08-08T06:43:55;5.22;;;1.63;;
69463;SDS011;56665;41.106;16.688;2023-08-08T06:46:58;4.03;;;1.33;;
69463;SDS011;56665;41.106;16.688;2023-08-08T06:50:02;3.65;;;1.30;;
69463;SDS011;56665;41.106;16.688;2023-08-08T06:53:06;3.80;;;1.20;;
69463;SDS011;56665;41.106;16.688;2023-08-08T06:56:10;3.78;;;1.15;;
69463;SDS011;56665;41.106;16.688;2023-08-08T06:59:13;4.10;;;1.35;;
69463;SDS011;56665;41.106;16.688;2023-08-08T07:02:17;4.03;;;1.33;;
69463;SDS011;56665;41.106;16.688;2023-08-08T07:05:22;3.38;;;1.15;;
69463;SDS011;56665;41.106;16.688;2023-08-08T07:08:26;3.90;;;1.20;;
69463;SDS011;56665;41.106;16.688;2023-08-08T07:11:30;3.53;;;1.00;;
69463;SDS011;56665;41.106;16.688;2023-08-08T07:14:33;3.33;;;0.90;;
69463;SDS011;56665;41.106;16.688;2023-08-08T07:17:37;5.85;;;1.30;;
69463;SDS011;56665;41.106;16.688;2023-08-08T07:20:41;3.58;;;1.00;;
69463;SDS011;56665;41.106;16.688;2023-08-08T07:23:45;6.50;;;1.03;;
69463;SDS011;56665;41.106;16.688;2023-08-08T07:26:49;3.38;;;1.00;;
69463;SDS011;56665;41.106;16.688;2023-08-08T07:29:52;2.72;;;1.00;;
69463;SDS011;56665;41.106;16.688;2023-08-08T07:32:56;3.10;;;1.10;;
69463;SDS011;56665;41.106;16.688;2023-08-08T07:36:00;4.35;;;1.55;;
69463;SDS011;56665;41.106;16.688;2023-08-08T07:39:04;4.07;;;1.10;;
69463;SDS011;56665;41.106;16.688;2023-08-08T07:42:08;2.70;;;1.05;;
69463;SDS011;56665;41.106;16.688;2023-08-08T07:45:11;3.55;;;0.90;;
69463;SDS011;56665;41.106;16.688;2023-08-08T07:48:15;3.45;;;1.00;;
69463;SDS011;56665;41.106;16.688;2023-08-08T07:51:19;2.50;;;0.80;;
69463;SDS011;56665;41.106;16.688;2023-08-08T07:54:23;2.70;;;0.93;;
69463;SDS011;56665;41.106;16.688;2023-08-08T07:57:26;3.85;;;1.27;;
69463;SDS011;56665;41.106;16.688;2023-08-08T08:00:30;4.03;;;1.40;;
69463;SDS011;56665;41.106;16.688;2023-08-08T08:03:34;2.60;;;1.08;;
69463;SDS011;56665;41.106;16.688;2023-08-08T08:06:38;4.55;;;1.52;;
69463;SDS011;56665;41.106;16.688;2023-08-08T08:09:41;6.37;;;1.40;;
69463;SDS011;56665;41.106;16.688;2023-08-08T08:12:46;4.20;;;1.52;;
69463;SDS011;56665;41.106;16.688;2023-08-08T08:15:49;4.95;;;1.20;;
69463;SDS011;56665;41.106;16.688;2023-08-08T08:18:53;2.88;;;1.20;;
69463;SDS011;56665;41.106;16.688;2023-08-08T08:21:57;3.55;;;1.58;;
69463;SDS011;56665;41.106;16.688;2023-08-08T08:25:01;3.87;;;1.50;;
69463;SDS011;56665;41.106;16.688;2023-08-08T08:28:04;2.90;;;1.38;;
69463;SDS011;56665;41.106;16.688;2023-08-08T08:31:08;3.90;;;1.45;;
69463;SDS011;56665;41.106;16.688;2023-08-08T08:34:12;3.60;;;1.17;;
69463;SDS011;56665;41.106;16.688;2023-08-08T08:37:16;4.35;;;1.40;;
69463;SDS011;56665;41.106;16.688;2023-08-08T08:40:19;3.60;;;1.20;;
69463;SDS011;56665;41.106;16.688;2023-08-08T08:43:23;4.40;;;1.48;;
69463;SDS011;56665;41.106;16.688;2023-08-08T08:46:27;7.13;;;1.60;;
69463;SDS011;56665;41.106;16.688;2023-08-08T08:49:32;5.35;;;1.75;;
69463;SDS011;56665;41.106;16.688;2023-08-08T08:52:38;7.60;;;1.80;;
69463;SDS011;56665;41.106;16.688;2023-08-08T08:55:43;4.90;;;1.50;;
69463;SDS011;56665;41.106;16.688;2023-08-08T08:58:48;5.10;;;1.40;;
69463;SDS011;56665;41.106;16.688;2023-08-08T09:01:51;3.22;;;1.55;;
69463;SDS011;56665;41.106;16.688;2023-08-08T09:04:57;6.22;;;1.50;;
69463;SDS011;56665;41.106;16.688;2023-08-08T09:08:02;6.72;;;1.75;;
69463;SDS011;56665;41.106;16.688;2023-08-08T09:11:06;4.23;;;1.30;;
69463;SDS011;56665;41.106;16.688;2023-08-08T09:14:20;5.20;;;1.50;;
69463;SDS011;56665;41.106;16.688;2023-08-08T09:17:25;3.22;;;1.10;;
69463;SDS011;56665;41.106;16.688;2023-08-08T09:20:29;3.97;;;1.30;;
69463;SDS011;56665;41.106;16.688;2023-08-08T09:23:33;3.03;;;1.30;;
69463;SDS011;56665;41.106;16.688;2023-08-08T09:26:38;5.27;;;1.60;;
69463;SDS011;56665;41.106;16.688;2023-08-08T09:29:42;2.88;;;1.30;;
69463;SDS011;56665;41.106;16.688;2023-08-08T09:32:46;2.67;;;1.23;;
69463;SDS011;56665;41.106;16.688;2023-08-08T09:35:53;2.70;;;1.58;;
69463;SDS011;56665;41.106;16.688;2023-08-08T09:38:57;4.72;;;1.30;;
69463;SDS011;56665;41.106;16.688;2023-08-08T09:42:02;2.40;;;1.10;;
69463;SDS011;56665;41.106;16.688;2023-08-08T09:45:07;3.53;;;1.40;;
69463;SDS011;56665;41.106;16.688;2023-08-08T09:48:12;5.07;;;1.27;;
69463;SDS011;56665;41.106;16.688;2023-08-08T09:51:16;3.28;;;1.13;;
69463;SDS011;56665;41.106;16.688;2023-08-08T09:54:19;3.15;;;1.40;;
69463;SDS011;56665;41.106;16.688;2023-08-08T09:57:23;3.40;;;1.10;;
69463;SDS011;56665;41.106;16.688;2023-08-08T10:00:28;3.30;;;1.10;;
69463;SDS011;56665;41.106;16.688;2023-08-08T10:03:34;2.55;;;1.10;;
69463;SDS011;56665;41.106;16.688;2023-08-08T10:06:40;2.63;;;1.30;;
69463;SDS011;56665;41.106;16.688;2023-08-08T10:09:44;3.10;;;1.15;;
69463;SDS011;56665;41.106;16.688;2023-08-08T10:12:48;5.00;;;1.20;;
69463;SDS011;56665;41.106;16.688;2023-08-08T10:15:54;3.47;;;1.25;;
69463;SDS011;56665;41.106;16.688;2023-08-08T10:18:59;2.30;;;1.08;;
69463;SDS011;56665;41.106;16.688;2023-08-08T10:22:05;7.82;;;1.65;;
69463;SDS011;56665;41.106;16.688;2023-08-08T10:25:24;3.50;;;1.40;;
69463;SDS011;56665;41.106;16.688;2023-08-08T10:28:32;3.17;;;1.50;;
69463;SDS011;56665;41.106;16.688;2023-08-08T10:31:37;5.10;;;2.42;;
69463;SDS011;56665;41.106;16.688;2023-08-08T10:34:41;5.60;;;2.90;;
69463;SDS011;56665;41.106;16.688;2023-08-08T10:37:55;10.18;;;5.95;;
69463;SDS011;56665;41.106;16.688;2023-08-08T10:41:02;6.90;;;3.80;;
69463;SDS011;56665;41.106;16.688;2023-08-08T10:44:08;4.87;;;2.80;;
69463;SDS011;56665;41.106;16.688;2023-08-08T10:47:12;5.65;;;2.15;;
69463;SDS011;56665;41.106;16.688;2023-08-08T10:50:23;3.50;;;1.98;;
69463;SDS011;56665;41.106;16.688;2023-08-08T10:53:28;3.35;;;1.30;;
69463;SDS011;56665;41.106;16.688;2023-08-08T10:56:32;3.47;;;1.35;;
69463;SDS011;56665;41.106;16.688;2023-08-08T10:59:39;4.07;;;1.43;;
69463;SDS011;56665;41.106;16.688;2023-08-08T11:02:44;2.50;;;1.35;;
69463;SDS011;56665;41.106;16.688;2023-08-08T11:05:47;3.08;;;1.60;;
69463;SDS011;56665;41.106;16.688;2023-08-08T11:08:51;3.00;;;1.55;;
69463;SDS011;56665;41.106;16.688;2023-08-08T11:11:57;5.05;;;1.58;;
69463;SDS011;56665;41.106;16.688;2023-08-08T11:15:01;3.10;;;1.80;;
69463;SDS011;56665;41.106;16.688;2023-08-08T11:18:07;4.93;;;1.85;;
69463;SDS011;56665;41.106;16.688;2023-08-08T11:21:12;4.75;;;1.83;;
69463;SDS011;56665;41.106;16.688;2023-08-08T11:24:16;3.45;;;1.80;;
69463;SDS011;56665;41.106;16.688;2023-08-08T11:27:19;3.85;;;1.80;;
69463;SDS011;56665;41.106;16.688;2023-08-08T11:30:23;4.73;;;2.07;;
69463;SDS011;56665;41.106;16.688;2023-08-08T11:33:31;2.97;;;1.73;;
69463;SDS011;56665;41.106;16.688;2023-08-08T11:36:35;5.32;;;1.88;;
69463;SDS011;56665;41.106;16.688;2023-08-08T11:39:39;3.67;;;2.03;;
69463;SDS011;56665;41.106;16.688;2023-08-08T11:42:43;3.15;;;2.22;;
69463;SDS011;56665;41.106;16.688;2023-08-08T11:45:50;3.77;;;2.00;;
69463;SDS011;56665;41.106;16.688;2023-08-08T11:49:01;3.53;;;2.00;;
69463;SDS011;56665;41.106;16.688;2023-08-08T11:52:06;3.78;;;1.80;;
69463;SDS011;56665;41.106;16.688;2023-08-08T11:55:11;4.55;;;2.03;;
69463;SDS011;56665;41.106;16.688;2023-08-08T11:58:16;4.35;;;2.05;;
69463;SDS011;56665;41.106;16.688;2023-08-08T12:01:20;4.30;;;2.00;;
69463;SDS011;56665;41.106;16.688;2023-08-08T12:04:25;2.75;;;1.90;;
69463;SDS011;56665;41.106;16.688;2023-08-08T12:07:31;3.80;;;1.95;;
69463;SDS011;56665;41.106;16.688;2023-08-08T12:10:35;3.63;;;2.00;;
69463;SDS011;56665;41.106;16.688;2023-08-08T12:13:43;3.63;;;2.30;;
69463;SDS011;56665;41.106;16.688;2023-08-08T12:16:47;3.77;;;2.07;;
69463;SDS011;56665;41.106;16.688;2023-08-08T12:19:51;5.07;;;2.15;;
69463;SDS011;56665;41.106;16.688;2023-08-08T12:22:55;3.00;;;2.05;;
69463;SDS011;56665;41.106;16.688;2023-08-08T12:25:58;3.72;;;2.10;;
69463;SDS011;56665;41.106;16.688;2023-08-08T12:29:03;4.07;;;2.08;;
69463;SDS011;56665;41.106;16.688;2023-08-08T12:32:06;3.23;;;1.90;;
69463;SDS011;56665;41.106;16.688;2023-08-08T12:35:11;5.30;;;2.30;;
69463;SDS011;56665;41.106;16.688;2023-08-08T12:38:15;3.70;;;1.90;;
69463;SDS011;56665;41.106;16.688;2023-08-08T12:41:19;4.90;;;2.17;;
69463;SDS011;56665;41.106;16.688;2023-08-08T12:44:23;4.43;;;2.40;;
69463;SDS011;56665;41.106;16.688;2023-08-08T12:47:26;2.97;;;2.10;;
69463;SDS011;56665;41.106;16.688;2023-08-08T12:50:30;3.47;;;2.08;;
69463;SDS011;56665;41.106;16.688;2023-08-08T12:53:34;3.03;;;2.20;;
69463;SDS011;56665;41.106;16.688;2023-08-08T12:56:38;4.80;;;2.35;;
69463;SDS011;56665;41.106;16.688;2023-08-08T12:59:42;4.65;;;2.15;;
69463;SDS011;56665;41.106;16.688;2023-08-08T13:02:45;4.10;;;2.10;;
69463;SDS011;56665;41.106;16.688;2023-08-08T13:05:50;4.50;;;2.20;;
69463;SDS011;56665;41.106;16.688;2023-08-08T13:08:54;3.67;;;1.95;;
69463;SDS011;56665;41.106;16.688;2023-08-08T13:11:59;4.35;;;1.90;;
69463;SDS011;56665;41.106;16.688;2023-08-08T13:15:03;4.07;;;2.10;;
69463;SDS011;56665;41.106;16.688;2023-08-08T13:18:07;5.73;;;1.70;;
69463;SDS011;56665;41.106;16.688;2023-08-08T13:21:10;5.60;;;1.63;;
69463;SDS011;56665;41.106;16.688;2023-08-08T13:24:14;2.97;;;1.30;;
69463;SDS011;56665;41.106;16.688;2023-08-08T13:27:18;3.70;;;1.48;;
69463;SDS011;56665;41.106;16.688;2023-08-08T13:30:22;4.25;;;1.40;;
69463;SDS011;56665;41.106;16.688;2023-08-08T13:33:26;2.77;;;1.50;;
69463;SDS011;56665;41.106;16.688;2023-08-08T13:36:30;2.60;;;1.30;;
69463;SDS011;56665;41.106;16.688;2023-08-08T13:39:33;2.50;;;1.45;;
69463;SDS011;56665;41.106;16.688;2023-08-08T13:42:37;2.40;;;1.30;;
69463;SDS011;56665;41.106;16.688;2023-08-08T13:45:41;3.70;;;1.38;;
69463;SDS011;56665;41.106;16.688;2023-08-08T13:48:44;4.93;;;1.30;;
69463;SDS011;56665;41.106;16.688;2023-08-08T13:51:48;2.00;;;1.00;;
69463;SDS011;56665;41.106;16.688;2023-08-08T13:54:52;3.05;;;1.08;;
69463;SDS011;56665;41.106;16.688;2023-08-08T13:57:57;2.50;;;1.30;;
69463;SDS011;56665;41.106;16.688;2023-08-08T14:01:01;2.90;;;1.40;;
69463;SDS011;56665;41.106;16.688;2023-08-08T14:04:05;3.07;;;1.20;;
69463;SDS011;56665;41.106;16.688;2023-08-08T14:07:09;3.03;;;1.60;;
69463;SDS011;56665;41.106;16.688;2023-08-08T14:10:12;2.25;;;1.15;;
69463;SDS011;56665;41.106;16.688;2023-08-08T14:13:16;2.28;;;1.10;;
69463;SDS011;56665;41.106;16.688;2023-08-08T14:16:22;2.80;;;1.13;;
69463;SDS011;56665;41.106;16.688;2023-08-08T14:19:25;2.93;;;1.20;;
69463;SDS011;56665;41.106;16.688;2023-08-08T14:22:29;3.50;;;1.10;;
69463;SDS011;56665;41.106;16.688;2023-08-08T14:25:33;2.58;;;1.33;;
69463;SDS011;56665;41.106;16.688;2023-08-08T14:28:40;3.92;;;1.40;;
69463;SDS011;56665;41.106;16.688;2023-08-08T14:31:43;2.90;;;1.00;;
69463;SDS011;56665;41.106;16.688;2023-08-08T14:34:47;3.43;;;1.40;;
69463;SDS011;56665;41.106;16.688;2023-08-08T14:37:51;3.10;;;1.17;;
69463;SDS011;56665;41.106;16.688;2023-08-08T14:40:55;2.88;;;1.20;;
69463;SDS011;56665;41.106;16.688;2023-08-08T14:43:59;3.53;;;1.20;;
69463;SDS011;56665;41.106;16.688;2023-08-08T14:47:03;2.60;;;1.17;;
69463;SDS011;56665;41.106;16.688;2023-08-08T14:50:07;4.00;;;1.30;;
69463;SDS011;56665;41.106;16.688;2023-08-08T14:53:12;2.20;;;0.98;;
69463;SDS011;56665;41.106;16.688;2023-08-08T14:56:16;2.85;;;1.10;;
69463;SDS011;56665;41.106;16.688;2023-08-08T14:59:20;2.40;;;1.10;;
69463;SDS011;56665;41.106;16.688;2023-08-08T15:02:24;2.40;;;1.10;;
69463;SDS011;56665;41.106;16.688;2023-08-08T15:05:28;2.93;;;1.20;;
69463;SDS011;56665;41.106;16.688;2023-08-08T15:08:31;2.80;;;1.20;;
69463;SDS011;56665;41.106;16.688;2023-08-08T15:11:35;2.00;;;1.20;;
69463;SDS011;56665;41.106;16.688;2023-08-08T15:14:39;2.70;;;1.33;;
69463;SDS011;56665;41.106;16.688;2023-08-08T15:17:43;2.67;;;1.10;;
69463;SDS011;56665;41.106;16.688;2023-08-08T15:20:46;2.40;;;1.30;;
69463;SDS011;56665;41.106;16.688;2023-08-08T15:23:50;3.33;;;1.00;;
69463;SDS011;56665;41.106;16.688;2023-08-08T15:26:54;2.55;;;1.27;;
69463;SDS011;56665;41.106;16.688;2023-08-08T15:29:58;3.38;;;1.30;;
69463;SDS011;56665;41.106;16.688;2023-08-08T15:33:01;2.45;;;1.10;;
69463;SDS011;56665;41.106;16.688;2023-08-08T15:36:05;2.63;;;1.20;;
69463;SDS011;56665;41.106;16.688;2023-08-08T15:39:09;2.80;;;1.30;;
69463;SDS011;56665;41.106;16.688;2023-08-08T15:42:13;2.30;;;1.10;;
69463;SDS011;56665;41.106;16.688;2023-08-08T15:45:16;2.88;;;1.33;;
69463;SDS011;56665;41.106;16.688;2023-08-08T15:48:20;3.58;;;1.27;;
69463;SDS011;56665;41.106;16.688;2023-08-08T15:51:24;2.60;;;1.60;;
69463;SDS011;56665;41.106;16.688;2023-08-08T15:54:28;2.70;;;1.63;;
69463;SDS011;56665;41.106;16.688;2023-08-08T15:57:32;3.40;;;1.58;;
69463;SDS011;56665;41.106;16.688;2023-08-08T16:00:36;4.15;;;1.63;;
69463;SDS011;56665;41.106;16.688;2023-08-08T16:03:40;2.60;;;1.50;;
69463;SDS011;56665;41.106;16.688;2023-08-08T16:06:44;4.20;;;1.60;;
69463;SDS011;56665;41.106;16.688;2023-08-08T16:09:48;3.10;;;1.50;;
69463;SDS011;56665;41.106;16.688;2023-08-08T16:12:52;3.30;;;1.63;;
69463;SDS011;56665;41.106;16.688;2023-08-08T16:15:56;3.45;;;1.40;;
69463;SDS011;56665;41.106;16.688;2023-08-08T16:19:00;3.63;;;1.55;;
69463;SDS011;56665;41.106;16.688;2023-08-08T16:22:03;2.80;;;1.40;;
69463;SDS011;56665;41.106;16.688;2023-08-08T16:25:08;4.75;;;1.38;;
69463;SDS011;56665;41.106;16.688;2023-08-08T16:28:12;4.07;;;1.30;;
69463;SDS011;56665;41.106;16.688;2023-08-08T16:31:16;3.40;;;1.40;;
69463;SDS011;56665;41.106;16.688;2023-08-08T16:34:21;4.90;;;1.42;;
69463;SDS011;56665;41.106;16.688;2023-08-08T16:37:24;5.77;;;1.40;;
69463;SDS011;56665;41.106;16.688;2023-08-08T16:40:17;3.13;;;1.50;;
69463;SDS011;56665;41.106;16.688;2023-08-08T16:43:21;2.78;;;1.33;;
69463;SDS011;56665;41.106;16.688;2023-08-08T16:46:24;3.95;;;1.27;;
69463;SDS011;56665;41.106;16.688;2023-08-08T16:49:28;2.42;;;1.30;;
69463;SDS011;56665;41.106;16.688;2023-08-08T16:52:33;3.97;;;1.43;;
69463;SDS011;56665;41.106;16.688;2023-08-08T16:55:36;5.10;;;1.25;;
69463;SDS011;56665;41.106;16.688;2023-08-08T16:58:40;2.55;;;1.00;;
69463;SDS011;56665;41.106;16.688;2023-08-08T17:01:45;2.50;;;1.38;;
69463;SDS011;56665;41.106;16.688;2023-08-08T17:04:49;2.33;;;0.93;;
69463;SDS011;56665;41.106;16.688;2023-08-08T17:07:54;2.23;;;1.20;;
69463;SDS011;56665;41.106;16.688;2023-08-08T17:10:58;2.45;;;1.02;;
69463;SDS011;56665;41.106;16.688;2023-08-08T17:14:02;7.75;;;1.20;;
69463;SDS011;56665;41.106;16.688;2023-08-08T17:17:05;2.55;;;1.20;;
69463;SDS011;56665;41.106;16.688;2023-08-08T17:20:09;3.85;;;1.10;;
69463;SDS011;56665;41.106;16.688;2023-08-08T17:23:13;2.93;;;0.90;;
69463;SDS011;56665;41.106;16.688;2023-08-08T17:26:17;2.50;;;1.10;;
69463;SDS011;56665;41.106;16.688;2023-08-08T17:29:23;2.40;;;1.00;;
69463;SDS011;56665;41.106;16.688;2023-08-08T17:32:27;3.22;;;1.13;;
69463;SDS011;56665;41.106;16.688;2023-08-08T17:35:32;2.75;;;1.20;;
69463;SDS011;56665;41.106;16.688;2023-08-08T17:38:35;3.63;;;1.30;;
69463;SDS011;56665;41.106;16.688;2023-08-08T17:41:39;2.80;;;1.40;;
69463;SDS011;56665;41.106;16.688;2023-08-08T17:44:43;3.88;;;1.25;;
69463;SDS011;56665;41.106;16.688;2023-08-08T17:47:47;2.42;;;0.95;;
69463;SDS011;56665;41.106;16.688;2023-08-08T17:50:54;3.67;;;0.98;;
69463;SDS011;56665;41.106;16.688;2023-08-08T17:53:58;5.87;;;1.03;;
69463;SDS011;56665;41.106;16.688;2023-08-08T17:57:01;3.30;;;0.98;;
69463;SDS011;56665;41.106;16.688;2023-08-08T18:00:05;2.53;;;1.00;;
69463;SDS011;56665;41.106;16.688;2023-08-08T18:03:12;2.08;;;0.90;;
69463;SDS011;56665;41.106;16.688;2023-08-08T18:06:17;2.78;;;0.90;;
69463;SDS011;56665;41.106;16.688;2023-08-08T18:09:21;3.40;;;1.00;;
69463;SDS011;56665;41.106;16.688;2023-08-08T18:12:24;2.67;;;0.95;;
69463;SDS011;56665;41.106;16.688;2023-08-08T18:15:28;3.40;;;1.10;;